< < Back
Terminal Aerodrome Forecast


Current Version              Previous Versions:   1  2  3  4  5  6  7  8  9  

Terminal Aerodrome Forecast

951
FTUS44 KBMX 261706 AAA
TAFANB
TAF AMD
KANB 261706Z 2617/2712 00000KT P6SM VCSH SCT060 SCT250
     FM261800 11006KT P6SM SCT050 SCT250
     FM270000 06003KT P6SM FEW060 SCT250=

Latest METAR

290
SAUS70 KWBC 270400 RRH
MTRANB
METAR KANB 270353Z AUTO 11004KT 10SM CLR 26/22 A3006 RMK AO2 SLP168
T02560217


USA.gov is the U.S. government's official web portal to all federal, state and local government web resources and services.